sensor_id;sensor_type;location;lat;lon;timestamp;temperature;humidity
19868;DHT22;10096;51.112;6.776;2023-02-26T00:02:15;2.30;99.90
19868;DHT22;10096;51.112;6.776;2023-02-26T00:04:42;2.40;99.90
19868;DHT22;10096;51.112;6.776;2023-02-26T00:07:09;2.10;99.90
19868;DHT22;10096;51.112;6.776;2023-02-26T00:09:36;2.40;99.90
19868;DHT22;10096;51.112;6.776;2023-02-26T00:12:05;2.30;99.90
19868;DHT22;10096;51.112;6.776;2023-02-26T00:14:33;2.30;99.90
19868;DHT22;10096;51.112;6.776;2023-02-26T00:17:29;2.40;99.90
19868;DHT22;10096;51.112;6.776;2023-02-26T00:19:58;2.50;99.90
19868;DHT22;10096;51.112;6.776;2023-02-26T00:22:25;2.50;99.90
19868;DHT22;10096;51.112;6.776;2023-02-26T00:24:52;2.50;99.90
19868;DHT22;10096;51.112;6.776;2023-02-26T00:27:21;2.40;99.90
19868;DHT22;10096;51.112;6.776;2023-02-26T00:29:49;2.60;99.90
19868;DHT22;10096;51.112;6.776;2023-02-26T00:32:16;2.50;99.90
19868;DHT22;10096;51.112;6.776;2023-02-26T00:34:45;2.60;99.90
19868;DHT22;10096;51.112;6.776;2023-02-26T00:37:22;2.50;99.90
19868;DHT22;10096;51.112;6.776;2023-02-26T00:40:00;2.50;99.90
19868;DHT22;10096;51.112;6.776;2023-02-26T00:42:32;2.50;99.90
19868;DHT22;10096;51.112;6.776;2023-02-26T00:45:00;2.60;99.90
19868;DHT22;10096;51.112;6.776;2023-02-26T00:47:32;2.60;99.90
19868;DHT22;10096;51.112;6.776;2023-02-26T00:50:11;2.70;99.90
19868;DHT22;10096;51.112;6.776;2023-02-26T00:52:43;2.60;99.90
19868;DHT22;10096;51.112;6.776;2023-02-26T00:55:12;2.60;99.90
19868;DHT22;10096;51.112;6.776;2023-02-26T00:57:40;2.60;99.90
19868;DHT22;10096;51.112;6.776;2023-02-26T01:00:08;2.80;99.90
19868;DHT22;10096;51.112;6.776;2023-02-26T01:02:37;2.60;99.90
19868;DHT22;10096;51.112;6.776;2023-02-26T01:05:05;2.50;99.90
19868;DHT22;10096;51.112;6.776;2023-02-26T01:07:39;2.50;99.90
19868;DHT22;10096;51.112;6.776;2023-02-26T01:10:08;2.40;99.90
19868;DHT22;10096;51.112;6.776;2023-02-26T01:12:36;2.30;99.90
19868;DHT22;10096;51.112;6.776;2023-02-26T01:15:06;2.30;99.90
19868;DHT22;10096;51.112;6.776;2023-02-26T01:17:39;2.20;99.90
19868;DHT22;10096;51.112;6.776;2023-02-26T01:20:15;2.20;99.90
19868;DHT22;10096;51.112;6.776;2023-02-26T01:22:47;2.00;99.90
19868;DHT22;10096;51.112;6.776;2023-02-26T01:25:22;2.00;99.90
19868;DHT22;10096;51.112;6.776;2023-02-26T01:27:50;2.00;99.90
19868;DHT22;10096;51.112;6.776;2023-02-26T01:30:20;2.10;99.90
19868;DHT22;10096;51.112;6.776;2023-02-26T01:32:50;2.20;99.90
19868;DHT22;10096;51.112;6.776;2023-02-26T01:35:36;2.30;99.90
19868;DHT22;10096;51.112;6.776;2023-02-26T01:38:15;2.20;99.90
19868;DHT22;10096;51.112;6.776;2023-02-26T01:43:50;2.40;99.90
19868;DHT22;10096;51.112;6.776;2023-02-26T01:46:27;2.20;99.90
19868;DHT22;10096;51.112;6.776;2023-02-26T01:48:57;2.30;99.90
19868;DHT22;10096;51.112;6.776;2023-02-26T01:51:43;2.30;99.90
19868;DHT22;10096;51.112;6.776;2023-02-26T01:54:10;2.30;99.90
19868;DHT22;10096;51.112;6.776;2023-02-26T01:56:38;2.40;99.90
19868;DHT22;10096;51.112;6.776;2023-02-26T01:59:07;2.30;99.90
19868;DHT22;10096;51.112;6.776;2023-02-26T02:01:38;2.30;99.90
19868;DHT22;10096;51.112;6.776;2023-02-26T02:04:09;2.60;99.90
19868;DHT22;10096;51.112;6.776;2023-02-26T02:06:37;2.30;99.90
19868;DHT22;10096;51.112;6.776;2023-02-26T02:09:06;2.20;99.90
19868;DHT22;10096;51.112;6.776;2023-02-26T02:11:33;2.20;99.90
19868;DHT22;10096;51.112;6.776;2023-02-26T02:14:06;2.20;99.90
19868;DHT22;10096;51.112;6.776;2023-02-26T02:16:42;2.10;99.90
19868;DHT22;10096;51.112;6.776;2023-02-26T02:19:29;2.00;99.90
19868;DHT22;10096;51.112;6.776;2023-02-26T02:22:20;2.00;99.90
19868;DHT22;10096;51.112;6.776;2023-02-26T02:25:01;1.90;99.90
19868;DHT22;10096;51.112;6.776;2023-02-26T02:27:39;1.90;99.90
19868;DHT22;10096;51.112;6.776;2023-02-26T02:30:24;2.10;99.90
19868;DHT22;10096;51.112;6.776;2023-02-26T02:32:57;1.80;99.90
19868;DHT22;10096;51.112;6.776;2023-02-26T02:35:29;1.70;99.90
19868;DHT22;10096;51.112;6.776;2023-02-26T02:38:03;1.40;99.90
19868;DHT22;10096;51.112;6.776;2023-02-26T02:40:33;1.70;99.90
19868;DHT22;10096;51.112;6.776;2023-02-26T02:43:03;1.90;1.00
19868;DHT22;10096;51.112;6.776;2023-02-26T02:45:40;1.60;1.00
19868;DHT22;10096;51.112;6.776;2023-02-26T02:48:13;1.60;1.00
19868;DHT22;10096;51.112;6.776;2023-02-26T02:50:45;1.60;1.00
19868;DHT22;10096;51.112;6.776;2023-02-26T02:53:17;1.60;1.00
19868;DHT22;10096;51.112;6.776;2023-02-26T02:55:49;1.50;1.00
19868;DHT22;10096;51.112;6.776;2023-02-26T02:58:21;1.70;1.00
19868;DHT22;10096;51.112;6.776;2023-02-26T03:00:51;1.50;1.00
19868;DHT22;10096;51.112;6.776;2023-02-26T03:03:24;1.50;1.00
19868;DHT22;10096;51.112;6.776;2023-02-26T03:05:52;1.40;1.00
19868;DHT22;10096;51.112;6.776;2023-02-26T03:08:22;1.40;1.00
19868;DHT22;10096;51.112;6.776;2023-02-26T03:10:50;1.40;1.00
19868;DHT22;10096;51.112;6.776;2023-02-26T03:13:19;1.40;1.00
19868;DHT22;10096;51.112;6.776;2023-02-26T03:15:52;1.40;1.00
19868;DHT22;10096;51.112;6.776;2023-02-26T03:18:33;1.30;1.00
19868;DHT22;10096;51.112;6.776;2023-02-26T03:21:07;1.30;1.00
19868;DHT22;10096;51.112;6.776;2023-02-26T03:23:39;1.20;1.00
19868;DHT22;10096;51.112;6.776;2023-02-26T03:26:12;1.20;1.00
19868;DHT22;10096;51.112;6.776;2023-02-26T03:28:43;1.20;1.00
19868;DHT22;10096;51.112;6.776;2023-02-26T03:31:17;1.20;99.90
19868;DHT22;10096;51.112;6.776;2023-02-26T03:33:53;1.40;99.90
19868;DHT22;10096;51.112;6.776;2023-02-26T03:36:25;1.30;99.90
19868;DHT22;10096;51.112;6.776;2023-02-26T03:38:56;1.20;1.00
19868;DHT22;10096;51.112;6.776;2023-02-26T03:41:28;1.30;99.90
19868;DHT22;10096;51.112;6.776;2023-02-26T03:43:58;1.10;99.90
19868;DHT22;10096;51.112;6.776;2023-02-26T03:46:29;1.10;99.90
19868;DHT22;10096;51.112;6.776;2023-02-26T03:49:03;1.10;99.90
19868;DHT22;10096;51.112;6.776;2023-02-26T03:51:32;1.30;99.90
19868;DHT22;10096;51.112;6.776;2023-02-26T03:54:04;1.00;99.90
19868;DHT22;10096;51.112;6.776;2023-02-26T03:56:42;1.20;99.90
19868;DHT22;10096;51.112;6.776;2023-02-26T03:59:10;1.10;99.90
19868;DHT22;10096;51.112;6.776;2023-02-26T04:01:41;1.10;99.90
19868;DHT22;10096;51.112;6.776;2023-02-26T04:04:14;1.30;99.90
19868;DHT22;10096;51.112;6.776;2023-02-26T04:06:43;1.00;99.90
19868;DHT22;10096;51.112;6.776;2023-02-26T04:09:11;1.00;99.90
19868;DHT22;10096;51.112;6.776;2023-02-26T04:11:38;1.00;99.90
19868;DHT22;10096;51.112;6.776;2023-02-26T04:14:06;1.00;99.90
19868;DHT22;10096;51.112;6.776;2023-02-26T04:16:33;0.90;99.90
19868;DHT22;10096;51.112;6.776;2023-02-26T04:18:59;1.10;99.90
19868;DHT22;10096;51.112;6.776;2023-02-26T04:21:28;0.90;99.90
19868;DHT22;10096;51.112;6.776;2023-02-26T04:23:55;0.90;99.90
19868;DHT22;10096;51.112;6.776;2023-02-26T04:26:21;0.90;99.90
19868;DHT22;10096;51.112;6.776;2023-02-26T04:28:49;0.80;99.90
19868;DHT22;10096;51.112;6.776;2023-02-26T04:31:15;0.80;99.90
19868;DHT22;10096;51.112;6.776;2023-02-26T04:33:43;0.80;99.90
19868;DHT22;10096;51.112;6.776;2023-02-26T04:36:09;0.80;1.00
19868;DHT22;10096;51.112;6.776;2023-02-26T04:38:38;0.70;1.00
19868;DHT22;10096;51.112;6.776;2023-02-26T04:41:05;0.70;1.00
19868;DHT22;10096;51.112;6.776;2023-02-26T04:43:32;1.00;1.00
19868;DHT22;10096;51.112;6.776;2023-02-26T04:45:59;0.60;1.00
19868;DHT22;10096;51.112;6.776;2023-02-26T04:48:26;0.70;1.00
19868;DHT22;10096;51.112;6.776;2023-02-26T04:50:53;0.70;1.00
19868;DHT22;10096;51.112;6.776;2023-02-26T04:53:20;0.80;1.00
19868;DHT22;10096;51.112;6.776;2023-02-26T04:55:49;0.70;1.00
19868;DHT22;10096;51.112;6.776;2023-02-26T04:58:16;0.80;1.00
19868;DHT22;10096;51.112;6.776;2023-02-26T05:00:46;1.00;1.00
19868;DHT22;10096;51.112;6.776;2023-02-26T05:03:13;0.90;1.00
19868;DHT22;10096;51.112;6.776;2023-02-26T05:05:40;0.80;1.00
19868;DHT22;10096;51.112;6.776;2023-02-26T05:08:07;0.80;1.00
19868;DHT22;10096;51.112;6.776;2023-02-26T05:10:34;0.80;1.00
19868;DHT22;10096;51.112;6.776;2023-02-26T05:13:03;0.70;1.00
19868;DHT22;10096;51.112;6.776;2023-02-26T05:15:30;0.90;1.00
19868;DHT22;10096;51.112;6.776;2023-02-26T05:17:56;0.70;1.00
19868;DHT22;10096;51.112;6.776;2023-02-26T05:20:23;0.70;1.00
19868;DHT22;10096;51.112;6.776;2023-02-26T05:22:50;0.60;1.00
19868;DHT22;10096;51.112;6.776;2023-02-26T05:25:18;0.80;1.00
19868;DHT22;10096;51.112;6.776;2023-02-26T05:27:45;0.70;1.00
19868;DHT22;10096;51.112;6.776;2023-02-26T05:30:15;0.50;1.00
19868;DHT22;10096;51.112;6.776;2023-02-26T05:32:42;0.50;1.00
19868;DHT22;10096;51.112;6.776;2023-02-26T05:35:09;0.50;1.00
19868;DHT22;10096;51.112;6.776;2023-02-26T05:37:37;0.60;1.00
19868;DHT22;10096;51.112;6.776;2023-02-26T05:40:06;0.50;1.00
19868;DHT22;10096;51.112;6.776;2023-02-26T05:42:35;0.50;1.00
19868;DHT22;10096;51.112;6.776;2023-02-26T05:45:03;0.50;1.00
19868;DHT22;10096;51.112;6.776;2023-02-26T05:47:32;0.50;1.00
19868;DHT22;10096;51.112;6.776;2023-02-26T05:49:59;0.60;1.00
19868;DHT22;10096;51.112;6.776;2023-02-26T05:52:26;0.40;1.00
19868;DHT22;10096;51.112;6.776;2023-02-26T05:54:53;0.10;1.00
19868;DHT22;10096;51.112;6.776;2023-02-26T05:57:20;0.70;1.00
19868;DHT22;10096;51.112;6.776;2023-02-26T05:59:47;0.40;1.00
19868;DHT22;10096;51.112;6.776;2023-02-26T06:02:15;0.40;1.00
19868;DHT22;10096;51.112;6.776;2023-02-26T06:04:43;0.30;1.00
19868;DHT22;10096;51.112;6.776;2023-02-26T06:07:10;0.30;1.00
19868;DHT22;10096;51.112;6.776;2023-02-26T06:09:37;0.40;1.00
19868;DHT22;10096;51.112;6.776;2023-02-26T06:12:06;0.20;1.00
19868;DHT22;10096;51.112;6.776;2023-02-26T06:14:33;0.30;1.00
19868;DHT22;10096;51.112;6.776;2023-02-26T06:17:00;0.30;1.00
19868;DHT22;10096;51.112;6.776;2023-02-26T06:19:27;0.30;1.00
19868;DHT22;10096;51.112;6.776;2023-02-26T06:21:55;0.20;1.00
19868;DHT22;10096;51.112;6.776;2023-02-26T06:24:22;0.40;1.00
19868;DHT22;10096;51.112;6.776;2023-02-26T06:26:49;0.30;1.00
19868;DHT22;10096;51.112;6.776;2023-02-26T06:29:16;0.20;1.00
19868;DHT22;10096;51.112;6.776;2023-02-26T06:31:45;0.10;1.00
19868;DHT22;10096;51.112;6.776;2023-02-26T06:34:12;0.40;1.00
19868;DHT22;10096;51.112;6.776;2023-02-26T06:36:39;0.40;1.00
19868;DHT22;10096;51.112;6.776;2023-02-26T06:39:07;0.20;1.00
19868;DHT22;10096;51.112;6.776;2023-02-26T06:41:37;0.30;1.00
19868;DHT22;10096;51.112;6.776;2023-02-26T06:44:04;0.50;1.00
19868;DHT22;10096;51.112;6.776;2023-02-26T06:46:31;0.70;1.00
19868;DHT22;10096;51.112;6.776;2023-02-26T06:48:58;0.90;1.00
19868;DHT22;10096;51.112;6.776;2023-02-26T06:51:25;1.20;1.00
19868;DHT22;10096;51.112;6.776;2023-02-26T06:53:51;1.50;1.00
19868;DHT22;10096;51.112;6.776;2023-02-26T06:56:20;1.20;1.00
19868;DHT22;10096;51.112;6.776;2023-02-26T06:58:47;1.20;1.00
19868;DHT22;10096;51.112;6.776;2023-02-26T07:01:14;1.30;1.00
19868;DHT22;10096;51.112;6.776;2023-02-26T07:03:41;1.60;1.00
19868;DHT22;10096;51.112;6.776;2023-02-26T07:06:09;1.90;99.90
19868;DHT22;10096;51.112;6.776;2023-02-26T07:08:37;1.80;99.90
19868;DHT22;10096;51.112;6.776;2023-02-26T07:11:04;2.10;99.90
19868;DHT22;10096;51.112;6.776;2023-02-26T07:13:34;2.40;99.90
19868;DHT22;10096;51.112;6.776;2023-02-26T07:16:02;3.30;99.90
19868;DHT22;10096;51.112;6.776;2023-02-26T07:18:31;4.10;99.90
19868;DHT22;10096;51.112;6.776;2023-02-26T07:20:58;4.80;99.90
19868;DHT22;10096;51.112;6.776;2023-02-26T07:23:25;5.10;99.90
19868;DHT22;10096;51.112;6.776;2023-02-26T07:25:52;5.40;99.90
19868;DHT22;10096;51.112;6.776;2023-02-26T07:28:19;5.90;99.90
19868;DHT22;10096;51.112;6.776;2023-02-26T07:30:47;6.00;99.90
19868;DHT22;10096;51.112;6.776;2023-02-26T07:33:14;6.40;99.90
19868;DHT22;10096;51.112;6.776;2023-02-26T07:35:41;6.10;99.90
19868;DHT22;10096;51.112;6.776;2023-02-26T07:38:08;6.40;99.90
19868;DHT22;10096;51.112;6.776;2023-02-26T07:40:35;6.40;99.90
19868;DHT22;10096;51.112;6.776;2023-02-26T07:43:02;6.40;99.90
19868;DHT22;10096;51.112;6.776;2023-02-26T07:45:29;6.30;99.90
19868;DHT22;10096;51.112;6.776;2023-02-26T07:47:58;6.10;99.90
19868;DHT22;10096;51.112;6.776;2023-02-26T07:50:25;6.40;99.90
19868;DHT22;10096;51.112;6.776;2023-02-26T07:52:52;6.50;99.90
19868;DHT22;10096;51.112;6.776;2023-02-26T07:55:20;6.40;99.90
19868;DHT22;10096;51.112;6.776;2023-02-26T07:57:47;6.70;99.90
19868;DHT22;10096;51.112;6.776;2023-02-26T08:00:16;6.40;99.90
19868;DHT22;10096;51.112;6.776;2023-02-26T08:02:43;6.60;99.90
19868;DHT22;10096;51.112;6.776;2023-02-26T08:05:11;6.50;99.90
19868;DHT22;10096;51.112;6.776;2023-02-26T08:07:38;6.90;99.90
19868;DHT22;10096;51.112;6.776;2023-02-26T08:10:05;6.80;99.90
19868;DHT22;10096;51.112;6.776;2023-02-26T08:12:32;7.00;99.90
19868;DHT22;10096;51.112;6.776;2023-02-26T08:14:59;7.10;99.90
19868;DHT22;10096;51.112;6.776;2023-02-26T08:17:26;7.10;99.90
19868;DHT22;10096;51.112;6.776;2023-02-26T08:19:53;7.00;99.90
19868;DHT22;10096;51.112;6.776;2023-02-26T08:22:21;7.20;99.90
19868;DHT22;10096;51.112;6.776;2023-02-26T08:24:48;6.60;99.90
19868;DHT22;10096;51.112;6.776;2023-02-26T08:27:16;6.30;99.90
19868;DHT22;10096;51.112;6.776;2023-02-26T08:29:42;5.90;99.90
19868;DHT22;10096;51.112;6.776;2023-02-26T08:32:11;5.10;99.90
19868;DHT22;10096;51.112;6.776;2023-02-26T08:34:39;4.30;99.90
19868;DHT22;10096;51.112;6.776;2023-02-26T08:37:07;3.80;99.90
19868;DHT22;10096;51.112;6.776;2023-02-26T08:39:37;3.60;99.90
19868;DHT22;10096;51.112;6.776;2023-02-26T08:42:04;3.40;99.90
19868;DHT22;10096;51.112;6.776;2023-02-26T08:44:32;3.20;99.90
19868;DHT22;10096;51.112;6.776;2023-02-26T08:47:00;2.90;99.90
19868;DHT22;10096;51.112;6.776;2023-02-26T08:49:28;3.10;99.90
19868;DHT22;10096;51.112;6.776;2023-02-26T08:51:55;3.10;99.90
19868;DHT22;10096;51.112;6.776;2023-02-26T08:54:22;3.20;99.90
19868;DHT22;10096;51.112;6.776;2023-02-26T08:56:51;3.30;99.90
19868;DHT22;10096;51.112;6.776;2023-02-26T08:59:20;3.00;99.90
19868;DHT22;10096;51.112;6.776;2023-02-26T09:01:47;3.20;99.90
19868;DHT22;10096;51.112;6.776;2023-02-26T09:04:14;3.00;99.90
19868;DHT22;10096;51.112;6.776;2023-02-26T09:06:41;3.10;99.90
19868;DHT22;10096;51.112;6.776;2023-02-26T09:09:08;3.40;99.90
19868;DHT22;10096;51.112;6.776;2023-02-26T09:11:35;3.50;99.90
19868;DHT22;10096;51.112;6.776;2023-02-26T09:14:04;3.60;99.90
19868;DHT22;10096;51.112;6.776;2023-02-26T09:16:31;3.40;99.90
19868;DHT22;10096;51.112;6.776;2023-02-26T09:21:27;3.30;99.90
19868;DHT22;10096;51.112;6.776;2023-02-26T09:23:54;3.20;99.90
19868;DHT22;10096;51.112;6.776;2023-02-26T09:26:21;3.20;99.90
19868;DHT22;10096;51.112;6.776;2023-02-26T09:28:48;3.30;99.90
19868;DHT22;10096;51.112;6.776;2023-02-26T09:31:16;3.30;99.90
19868;DHT22;10096;51.112;6.776;2023-02-26T09:33:43;3.30;99.90
19868;DHT22;10096;51.112;6.776;2023-02-26T09:36:10;3.50;99.90
19868;DHT22;10096;51.112;6.776;2023-02-26T09:38:37;3.40;99.90
19868;DHT22;10096;51.112;6.776;2023-02-26T09:41:07;3.50;99.90
19868;DHT22;10096;51.112;6.776;2023-02-26T09:43:53;3.60;99.90
19868;DHT22;10096;51.112;6.776;2023-02-26T09:46:32;3.60;99.90
19868;DHT22;10096;51.112;6.776;2023-02-26T09:49:10;3.80;99.90
19868;DHT22;10096;51.112;6.776;2023-02-26T09:51:42;3.50;99.90
19868;DHT22;10096;51.112;6.776;2023-02-26T09:54:16;3.40;99.90
19868;DHT22;10096;51.112;6.776;2023-02-26T09:56:44;3.50;99.90
19868;DHT22;10096;51.112;6.776;2023-02-26T09:59:11;3.30;99.90
19868;DHT22;10096;51.112;6.776;2023-02-26T10:01:47;3.30;99.90
19868;DHT22;10096;51.112;6.776;2023-02-26T10:04:24;3.40;99.90
19868;DHT22;10096;51.112;6.776;2023-02-26T10:07:09;3.60;99.90
19868;DHT22;10096;51.112;6.776;2023-02-26T10:09:51;3.70;99.90
19868;DHT22;10096;51.112;6.776;2023-02-26T10:12:25;3.70;99.90
19868;DHT22;10096;51.112;6.776;2023-02-26T10:14:57;3.70;99.90
19868;DHT22;10096;51.112;6.776;2023-02-26T10:17:31;3.80;99.90
19868;DHT22;10096;51.112;6.776;2023-02-26T10:20:00;3.80;99.90
19868;DHT22;10096;51.112;6.776;2023-02-26T10:22:32;3.90;99.90
19868;DHT22;10096;51.112;6.776;2023-02-26T10:25:05;3.90;99.90
19868;DHT22;10096;51.112;6.776;2023-02-26T10:27:51;4.00;99.90
19868;DHT22;10096;51.112;6.776;2023-02-26T10:30:29;4.20;99.90
19868;DHT22;10096;51.112;6.776;2023-02-26T10:33:05;4.30;99.90
19868;DHT22;10096;51.112;6.776;2023-02-26T10:35:39;4.60;99.90
19868;DHT22;10096;51.112;6.776;2023-02-26T10:38:11;4.60;99.90
19868;DHT22;10096;51.112;6.776;2023-02-26T10:40:45;4.60;99.90
19868;DHT22;10096;51.112;6.776;2023-02-26T10:43:17;4.60;99.90
19868;DHT22;10096;51.112;6.776;2023-02-26T10:45:59;4.50;99.90
19868;DHT22;10096;51.112;6.776;2023-02-26T10:48:43;4.60;99.90
19868;DHT22;10096;51.112;6.776;2023-02-26T10:51:17;4.70;99.90
19868;DHT22;10096;51.112;6.776;2023-02-26T10:53:48;4.60;99.90
19868;DHT22;10096;51.112;6.776;2023-02-26T10:56:19;4.70;99.90
19868;DHT22;10096;51.112;6.776;2023-02-26T10:58:47;4.80;99.90
19868;DHT22;10096;51.112;6.776;2023-02-26T11:01:17;4.80;99.90
19868;DHT22;10096;51.112;6.776;2023-02-26T11:03:48;4.80;99.90
19868;DHT22;10096;51.112;6.776;2023-02-26T11:06:20;4.70;99.90
19868;DHT22;10096;51.112;6.776;2023-02-26T11:08:49;4.80;99.90
19868;DHT22;10096;51.112;6.776;2023-02-26T11:11:40;4.70;99.90
19868;DHT22;10096;51.112;6.776;2023-02-26T11:14:08;5.00;99.90
19868;DHT22;10096;51.112;6.776;2023-02-26T11:16:41;5.00;99.90
19868;DHT22;10096;51.112;6.776;2023-02-26T11:19:11;4.90;99.90
19868;DHT22;10096;51.112;6.776;2023-02-26T11:21:40;4.70;99.90
19868;DHT22;10096;51.112;6.776;2023-02-26T11:24:12;4.60;99.90
19868;DHT22;10096;51.112;6.776;2023-02-26T11:26:43;4.50;99.90
19868;DHT22;10096;51.112;6.776;2023-02-26T11:29:14;4.70;99.90
19868;DHT22;10096;51.112;6.776;2023-02-26T11:31:47;4.70;99.90
19868;DHT22;10096;51.112;6.776;2023-02-26T11:34:20;5.00;99.90
19868;DHT22;10096;51.112;6.776;2023-02-26T11:36:48;5.20;99.90
19868;DHT22;10096;51.112;6.776;2023-02-26T11:39:17;5.50;99.90
19868;DHT22;10096;51.112;6.776;2023-02-26T11:41:46;5.50;99.90
19868;DHT22;10096;51.112;6.776;2023-02-26T11:44:16;5.30;99.90
19868;DHT22;10096;51.112;6.776;2023-02-26T11:46:49;5.00;99.90
19868;DHT22;10096;51.112;6.776;2023-02-26T11:49:22;4.90;99.90
19868;DHT22;10096;51.112;6.776;2023-02-26T11:52:10;4.70;99.90
19868;DHT22;10096;51.112;6.776;2023-02-26T11:54:43;4.70;99.90
19868;DHT22;10096;51.112;6.776;2023-02-26T11:57:15;4.70;99.90
19868;DHT22;10096;51.112;6.776;2023-02-26T11:59:46;4.70;99.90
19868;DHT22;10096;51.112;6.776;2023-02-26T12:02:18;4.80;99.90
19868;DHT22;10096;51.112;6.776;2023-02-26T12:04:49;4.70;99.90
19868;DHT22;10096;51.112;6.776;2023-02-26T12:07:18;4.70;99.90
19868;DHT22;10096;51.112;6.776;2023-02-26T12:09:47;4.80;99.90
19868;DHT22;10096;51.112;6.776;2023-02-26T12:15:26;4.80;99.90
19868;DHT22;10096;51.112;6.776;2023-02-26T12:18:05;4.80;99.90
19868;DHT22;10096;51.112;6.776;2023-02-26T12:20:44;4.90;99.90
19868;DHT22;10096;51.112;6.776;2023-02-26T12:23:26;4.80;99.90
19868;DHT22;10096;51.112;6.776;2023-02-26T12:26:04;4.80;99.90
19868;DHT22;10096;51.112;6.776;2023-02-26T12:29:13;4.90;99.90
19868;DHT22;10096;51.112;6.776;2023-02-26T12:34:44;5.30;99.90
19868;DHT22;10096;51.112;6.776;2023-02-26T12:37:27;5.30;99.90
19868;DHT22;10096;51.112;6.776;2023-02-26T12:40:07;5.00;99.90
19868;DHT22;10096;51.112;6.776;2023-02-26T12:42:45;4.80;99.90
19868;DHT22;10096;51.112;6.776;2023-02-26T12:45:33;5.00;99.90
19868;DHT22;10096;51.112;6.776;2023-02-26T12:48:39;4.80;99.90
19868;DHT22;10096;51.112;6.776;2023-02-26T12:51:15;4.70;99.90
19868;DHT22;10096;51.112;6.776;2023-02-26T12:54:15;4.70;99.90
19868;DHT22;10096;51.112;6.776;2023-02-26T13:00:17;4.80;99.90
19868;DHT22;10096;51.112;6.776;2023-02-26T13:03:12;4.90;99.90
19868;DHT22;10096;51.112;6.776;2023-02-26T13:05:56;4.90;99.90
19868;DHT22;10096;51.112;6.776;2023-02-26T13:08:31;4.80;99.90
19868;DHT22;10096;51.112;6.776;2023-02-26T13:11:13;5.00;99.90
19868;DHT22;10096;51.112;6.776;2023-02-26T13:13:56;5.10;99.90
19868;DHT22;10096;51.112;6.776;2023-02-26T13:16:42;5.30;99.90
19868;DHT22;10096;51.112;6.776;2023-02-26T13:19:21;5.40;99.90
19868;DHT22;10096;51.112;6.776;2023-02-26T13:21:54;5.20;99.90
19868;DHT22;10096;51.112;6.776;2023-02-26T13:24:25;5.00;99.90
19868;DHT22;10096;51.112;6.776;2023-02-26T13:26:56;4.70;99.90
19868;DHT22;10096;51.112;6.776;2023-02-26T13:29:29;5.00;99.90
19868;DHT22;10096;51.112;6.776;2023-02-26T13:32:03;4.70;99.90
19868;DHT22;10096;51.112;6.776;2023-02-26T13:34:36;4.70;99.90
19868;DHT22;10096;51.112;6.776;2023-02-26T13:37:05;4.80;99.90
19868;DHT22;10096;51.112;6.776;2023-02-26T13:39:43;4.90;99.90
19868;DHT22;10096;51.112;6.776;2023-02-26T13:42:21;5.10;99.90
19868;DHT22;10096;51.112;6.776;2023-02-26T13:44:59;5.10;99.90
19868;DHT22;10096;51.112;6.776;2023-02-26T13:47:53;4.90;99.90
19868;DHT22;10096;51.112;6.776;2023-02-26T13:50:27;5.00;99.90
19868;DHT22;10096;51.112;6.776;2023-02-26T13:53:01;5.10;99.90
19868;DHT22;10096;51.112;6.776;2023-02-26T13:55:43;4.90;99.90
19868;DHT22;10096;51.112;6.776;2023-02-26T13:58:37;4.90;99.90
19868;DHT22;10096;51.112;6.776;2023-02-26T14:01:09;5.00;99.90
19868;DHT22;10096;51.112;6.776;2023-02-26T14:03:43;5.10;99.90
19868;DHT22;10096;51.112;6.776;2023-02-26T14:06:38;5.20;99.90
19868;DHT22;10096;51.112;6.776;2023-02-26T14:09:43;5.10;99.90
19868;DHT22;10096;51.112;6.776;2023-02-26T14:12:30;5.10;99.90
19868;DHT22;10096;51.112;6.776;2023-02-26T14:15:19;5.10;99.90
19868;DHT22;10096;51.112;6.776;2023-02-26T14:18:10;5.00;99.90
19868;DHT22;10096;51.112;6.776;2023-02-26T14:20:45;5.00;99.90
19868;DHT22;10096;51.112;6.776;2023-02-26T14:23:34;5.00;99.90
19868;DHT22;10096;51.112;6.776;2023-02-26T14:26:17;5.00;99.90
19868;DHT22;10096;51.112;6.776;2023-02-26T14:28:55;4.90;99.90
19868;DHT22;10096;51.112;6.776;2023-02-26T14:31:25;4.90;99.90
19868;DHT22;10096;51.112;6.776;2023-02-26T14:34:07;4.90;99.90
19868;DHT22;10096;51.112;6.776;2023-02-26T14:36:41;5.00;99.90
19868;DHT22;10096;51.112;6.776;2023-02-26T14:39:23;5.00;99.90
19868;DHT22;10096;51.112;6.776;2023-02-26T14:41:56;5.20;99.90
19868;DHT22;10096;51.112;6.776;2023-02-26T14:44:26;5.00;99.90
19868;DHT22;10096;51.112;6.776;2023-02-26T14:46:58;5.00;99.90
19868;DHT22;10096;51.112;6.776;2023-02-26T14:49:28;5.00;99.90
19868;DHT22;10096;51.112;6.776;2023-02-26T14:52:09;5.20;99.90
19868;DHT22;10096;51.112;6.776;2023-02-26T14:55:00;4.90;99.90
19868;DHT22;10096;51.112;6.776;2023-02-26T14:57:39;5.00;99.90
19868;DHT22;10096;51.112;6.776;2023-02-26T15:00:22;4.90;99.90
19868;DHT22;10096;51.112;6.776;2023-02-26T15:03:43;5.10;99.90
19868;DHT22;10096;51.112;6.776;2023-02-26T15:06:25;5.00;99.90
19868;DHT22;10096;51.112;6.776;2023-02-26T15:09:05;5.20;99.90
19868;DHT22;10096;51.112;6.776;2023-02-26T15:11:51;5.00;99.90
19868;DHT22;10096;51.112;6.776;2023-02-26T15:17:57;4.80;99.90
19868;DHT22;10096;51.112;6.776;2023-02-26T15:20:34;4.90;99.90
19868;DHT22;10096;51.112;6.776;2023-02-26T15:23:17;4.80;99.90
19868;DHT22;10096;51.112;6.776;2023-02-26T15:25:48;4.80;99.90
19868;DHT22;10096;51.112;6.776;2023-02-26T15:28:21;4.90;99.90
19868;DHT22;10096;51.112;6.776;2023-02-26T15:30:52;4.80;99.90
19868;DHT22;10096;51.112;6.776;2023-02-26T15:33:23;4.60;99.90
19868;DHT22;10096;51.112;6.776;2023-02-26T15:35:58;5.00;99.90
19868;DHT22;10096;51.112;6.776;2023-02-26T15:38:39;4.90;99.90
19868;DHT22;10096;51.112;6.776;2023-02-26T15:41:06;5.00;99.90
19868;DHT22;10096;51.112;6.776;2023-02-26T15:43:34;4.80;99.90
19868;DHT22;10096;51.112;6.776;2023-02-26T15:46:02;4.80;99.90
19868;DHT22;10096;51.112;6.776;2023-02-26T15:48:33;4.80;99.90
19868;DHT22;10096;51.112;6.776;2023-02-26T15:51:10;4.70;99.90
19868;DHT22;10096;51.112;6.776;2023-02-26T15:53:44;4.70;99.90
19868;DHT22;10096;51.112;6.776;2023-02-26T15:56:14;4.70;99.90
19868;DHT22;10096;51.112;6.776;2023-02-26T15:58:46;4.70;99.90
19868;DHT22;10096;51.112;6.776;2023-02-26T16:01:16;4.80;99.90
19868;DHT22;10096;51.112;6.776;2023-02-26T16:03:46;4.60;99.90
19868;DHT22;10096;51.112;6.776;2023-02-26T16:06:22;4.60;99.90
19868;DHT22;10096;51.112;6.776;2023-02-26T16:08:50;4.50;99.90
19868;DHT22;10096;51.112;6.776;2023-02-26T16:11:19;4.50;99.90
19868;DHT22;10096;51.112;6.776;2023-02-26T16:13:51;4.60;99.90
19868;DHT22;10096;51.112;6.776;2023-02-26T16:16:23;4.50;99.90
19868;DHT22;10096;51.112;6.776;2023-02-26T16:18:52;4.50;99.90
19868;DHT22;10096;51.112;6.776;2023-02-26T16:21:32;4.40;99.90
19868;DHT22;10096;51.112;6.776;2023-02-26T16:24:05;4.50;99.90
19868;DHT22;10096;51.112;6.776;2023-02-26T16:26:36;4.40;99.90
19868;DHT22;10096;51.112;6.776;2023-02-26T16:29:10;4.30;99.90
19868;DHT22;10096;51.112;6.776;2023-02-26T16:31:39;4.40;99.90
19868;DHT22;10096;51.112;6.776;2023-02-26T16:34:22;4.30;99.90
19868;DHT22;10096;51.112;6.776;2023-02-26T16:36:52;4.20;99.90
19868;DHT22;10096;51.112;6.776;2023-02-26T16:39:22;4.20;99.90
19868;DHT22;10096;51.112;6.776;2023-02-26T16:42:06;4.30;99.90